createdAt,value
2023-01-20T00:01:46.646Z,12.33
2023-01-20T00:04:15.050Z,16.43
2023-01-20T00:06:42.024Z,28.13
2023-01-20T00:09:16.917Z,14.43
2023-01-20T00:11:44.790Z,11.20
2023-01-20T00:14:11.760Z,10.40
2023-01-20T00:16:39.026Z,13.30
2023-01-20T00:19:06.045Z,10.07
2023-01-20T00:21:35.029Z,16.57
2023-01-20T00:24:02.002Z,17.97
2023-01-20T00:26:28.980Z,14.47
2023-01-20T00:28:58.006Z,15.40
2023-01-20T00:31:31.009Z,11.00
2023-01-20T00:34:00.360Z,20.17
2023-01-20T00:36:34.137Z,13.60
2023-01-20T00:39:03.224Z,22.27
2023-01-20T00:41:30.500Z,18.23
2023-01-20T00:43:57.415Z,14.90
2023-01-20T00:46:24.607Z,11.60
2023-01-20T00:48:51.600Z,15.47
2023-01-20T00:51:18.558Z,14.70
2023-01-20T00:53:45.528Z,17.97
2023-01-20T00:56:12.544Z,18.87
2023-01-20T00:58:39.515Z,15.87
2023-01-20T01:01:06.563Z,26.57
2023-01-20T01:03:33.792Z,20.90
2023-01-20T01:06:12.840Z,16.60
2023-01-20T01:08:40.388Z,15.30
2023-01-20T01:11:07.894Z,15.17
2023-01-20T01:13:36.151Z,13.93
2023-01-20T01:16:03.357Z,16.90
2023-01-20T01:18:30.325Z,25.37
2023-01-20T01:20:57.873Z,19.40
2023-01-20T01:23:24.822Z,19.43
2023-01-20T01:26:07.127Z,21.20
2023-01-20T01:28:34.171Z,18.23
2023-01-20T01:31:06.467Z,14.43
2023-01-20T01:33:33.815Z,13.87
2023-01-20T01:36:03.430Z,10.80
2023-01-20T01:38:30.522Z,16.27
2023-01-20T01:40:57.726Z,9.93
2023-01-20T01:43:37.135Z,12.80
2023-01-20T01:46:05.312Z,8.83
2023-01-20T01:48:45.513Z,13.33
2023-01-20T01:51:24.467Z,12.37
2023-01-20T01:53:57.859Z,12.27
2023-01-20T01:56:26.447Z,9.23
2023-01-20T01:58:59.307Z,11.47
2023-01-20T02:01:27.925Z,13.23
2023-01-20T02:04:02.236Z,20.30
2023-01-20T02:06:34.029Z,16.27
2023-01-20T02:09:03.703Z,8.90
2023-01-20T02:11:37.085Z,21.17
2023-01-20T02:14:04.470Z,14.23
2023-01-20T02:16:57.354Z,10.00
2023-01-20T02:19:35.974Z,19.63
2023-01-20T02:22:30.398Z,16.83
2023-01-20T02:25:29.683Z,17.90
2023-01-20T02:28:09.810Z,23.23
2023-01-20T02:31:04.135Z,9.87
2023-01-20T02:33:44.310Z,19.23
2023-01-20T02:36:27.075Z,15.43
2023-01-20T02:39:08.286Z,21.03
2023-01-20T02:42:04.728Z,9.50
2023-01-20T02:44:41.087Z,19.53
2023-01-20T02:47:36.775Z,22.87
2023-01-20T02:50:42.192Z,14.70
2023-01-20T02:53:12.862Z,7.57
2023-01-20T02:55:46.878Z,12.80
2023-01-20T02:58:40.222Z,10.47
2023-01-20T03:01:34.287Z,16.70
2023-01-20T03:04:04.201Z,13.27
2023-01-20T03:06:38.315Z,10.23
2023-01-20T03:09:12.976Z,13.87
2023-01-20T03:11:47.671Z,10.13
2023-01-20T03:14:15.676Z,19.90
2023-01-20T03:16:43.516Z,17.77
2023-01-20T03:19:11.432Z,10.63
2023-01-20T03:21:38.375Z,15.43
2023-01-20T03:24:06.696Z,14.10
2023-01-20T03:26:34.433Z,11.57
2023-01-20T03:29:11.617Z,12.30
2023-01-20T03:31:47.227Z,15.13
2023-01-20T03:34:20.276Z,18.40
2023-01-20T03:36:48.153Z,19.23
2023-01-20T03:39:15.567Z,12.40
2023-01-20T03:42:00.453Z,13.90
2023-01-20T03:45:10.796Z,16.70
2023-01-20T03:47:56.431Z,15.40
2023-01-20T03:50:38.404Z,26.23
2023-01-20T03:53:11.070Z,18.60
2023-01-20T03:55:56.090Z,18.73
2023-01-20T03:58:32.347Z,18.00
2023-01-20T04:01:14.973Z,20.03
2023-01-20T04:03:49.222Z,15.33
2023-01-20T04:06:18.473Z,29.80
2023-01-20T04:08:56.493Z,23.37
2023-01-20T04:11:23.876Z,25.03
2023-01-20T04:13:51.538Z,23.93
2023-01-20T04:16:20.555Z,29.40
2023-01-20T04:18:50.890Z,23.07
2023-01-20T04:21:47.291Z,21.77
2023-01-20T04:24:21.832Z,17.47
2023-01-20T04:26:48.823Z,28.50
2023-01-20T04:29:15.800Z,24.83
2023-01-20T04:31:42.868Z,23.00
2023-01-20T04:34:15.950Z,28.10
2023-01-20T04:36:43.197Z,23.73
2023-01-20T04:39:10.263Z,25.10
2023-01-20T04:41:37.317Z,22.80
2023-01-20T04:44:04.250Z,28.13
2023-01-20T04:46:31.206Z,29.13
2023-01-20T04:48:58.146Z,25.17
2023-01-20T04:51:25.065Z,21.73
2023-01-20T04:53:56.813Z,20.60
2023-01-20T04:56:24.147Z,24.37
2023-01-20T04:58:51.192Z,24.53
2023-01-20T05:01:18.652Z,29.60
2023-01-20T05:03:45.593Z,22.10
2023-01-20T05:06:13.099Z,29.40
2023-01-20T05:08:40.477Z,23.23
2023-01-20T05:11:07.526Z,22.20
2023-01-20T05:13:38.571Z,22.53
2023-01-20T05:16:07.678Z,41.07
2023-01-20T05:18:35.443Z,24.73
2023-01-20T05:21:05.273Z,35.33
2023-01-20T05:23:32.168Z,43.23
2023-01-20T05:25:59.165Z,26.30
2023-01-20T05:28:26.175Z,36.53
2023-01-20T05:30:53.226Z,21.53
2023-01-20T05:33:20.354Z,21.97
2023-01-20T05:35:47.298Z,17.93
2023-01-20T05:38:14.305Z,23.27
2023-01-20T05:40:41.312Z,27.73
2023-01-20T05:43:08.428Z,37.93
2023-01-20T05:45:35.662Z,21.60
2023-01-20T05:48:03.321Z,36.73
2023-01-20T05:50:30.633Z,25.97
2023-01-20T05:52:57.651Z,34.13
2023-01-20T05:55:24.676Z,31.00
2023-01-20T05:57:51.632Z,21.33
2023-01-20T06:00:19.675Z,21.93
2023-01-20T06:02:46.859Z,19.97
2023-01-20T06:05:14.358Z,19.53
2023-01-20T06:07:41.539Z,20.20
2023-01-20T06:10:09.287Z,35.53
2023-01-20T06:12:36.255Z,27.57
2023-01-20T06:15:03.923Z,30.83
2023-01-20T06:17:30.893Z,37.83
2023-01-20T06:19:58.542Z,79.70
2023-01-20T06:22:26.160Z,71.67
2023-01-20T06:24:53.444Z,47.60
2023-01-20T06:27:20.630Z,34.60
2023-01-20T06:29:47.824Z,32.87
2023-01-20T06:32:14.823Z,22.80
2023-01-20T06:34:41.773Z,25.40
2023-01-20T06:37:08.777Z,24.60
2023-01-20T06:39:35.923Z,27.43
2023-01-20T06:42:02.941Z,22.10
2023-01-20T06:44:29.881Z,27.03
2023-01-20T06:46:58.090Z,25.20
2023-01-20T06:49:26.550Z,20.13
2023-01-20T06:51:56.276Z,21.73
2023-01-20T06:54:23.222Z,29.40
2023-01-20T06:56:50.214Z,23.73
2023-01-20T06:59:17.230Z,32.93
2023-01-20T07:01:44.303Z,22.43
2023-01-20T07:04:14.536Z,25.80
2023-01-20T07:06:42.187Z,31.47
2023-01-20T07:09:12.017Z,28.27
2023-01-20T07:11:39.824Z,27.47
2023-01-20T07:14:07.571Z,26.23
2023-01-20T07:16:35.016Z,28.17
2023-01-20T07:19:02.254Z,36.87
2023-01-20T07:21:29.448Z,26.17
2023-01-20T07:23:59.095Z,30.47
2023-01-20T07:26:26.649Z,35.27
2023-01-20T07:28:53.882Z,27.83
2023-01-20T07:31:26.782Z,23.77
2023-01-20T07:33:57.658Z,34.07
2023-01-20T07:36:25.249Z,34.17
2023-01-20T07:38:53.646Z,35.23
2023-01-20T07:41:22.340Z,26.67
2023-01-20T07:43:51.725Z,27.00
2023-01-20T07:46:19.875Z,29.13
2023-01-20T07:48:46.971Z,32.00
2023-01-20T07:51:15.799Z,36.70
2023-01-20T07:53:47.028Z,32.70
2023-01-20T07:56:21.143Z,34.77
2023-01-20T07:58:50.495Z,40.83
2023-01-20T08:01:20.414Z,35.20
2023-01-20T08:03:48.022Z,39.07
2023-01-20T08:06:19.145Z,32.07
2023-01-20T08:08:46.684Z,29.23
2023-01-20T08:11:15.384Z,34.73
2023-01-20T08:13:43.283Z,33.43
2023-01-20T08:16:13.524Z,39.77
2023-01-20T08:18:40.851Z,53.00
2023-01-20T08:21:26.560Z,43.87
2023-01-20T08:23:56.754Z,38.20
2023-01-20T08:26:27.347Z,30.30
2023-01-20T08:28:55.802Z,43.80
2023-01-20T08:31:24.889Z,34.50
2023-01-20T08:33:57.546Z,29.50
2023-01-20T08:36:29.726Z,31.50
2023-01-20T08:38:59.392Z,27.40
2023-01-20T08:41:36.974Z,38.07
2023-01-20T08:44:07.315Z,38.83
2023-01-20T08:46:34.983Z,32.60
2023-01-20T08:49:02.279Z,28.80
2023-01-20T08:51:32.224Z,37.90
2023-01-20T08:54:00.004Z,29.47
2023-01-20T08:56:28.193Z,33.67
2023-01-20T08:58:59.775Z,39.93
2023-01-20T09:01:30.773Z,37.10
2023-01-20T09:04:05.879Z,35.53
2023-01-20T09:06:40.586Z,38.40
2023-01-20T09:09:08.038Z,34.23
2023-01-20T09:11:35.826Z,32.43
2023-01-20T09:14:03.037Z,39.37
2023-01-20T09:16:30.003Z,48.57
2023-01-20T09:18:56.976Z,36.37
2023-01-20T09:21:24.204Z,45.10
2023-01-20T09:23:51.254Z,34.07
2023-01-20T09:26:34.208Z,43.07
2023-01-20T09:29:11.776Z,43.23
2023-01-20T09:31:44.990Z,36.47
2023-01-20T09:34:19.634Z,57.30
2023-01-20T09:37:19.600Z,38.87
2023-01-20T09:40:05.732Z,43.00
2023-01-20T09:43:09.217Z,53.00
2023-01-20T09:45:48.154Z,45.47
2023-01-20T09:49:01.455Z,45.30
2023-01-20T09:52:41.389Z,42.17
2023-01-20T09:55:22.185Z,49.37
2023-01-20T09:57:59.355Z,40.50
2023-01-20T10:00:31.750Z,38.80
2023-01-20T10:03:18.796Z,38.00
2023-01-20T10:05:50.315Z,41.97
2023-01-20T10:08:34.315Z,40.10
2023-01-20T10:11:12.105Z,39.70
2023-01-20T10:14:24.409Z,48.30
2023-01-20T10:17:16.891Z,41.87
2023-01-20T10:20:28.217Z,39.50
2023-01-20T10:23:40.055Z,50.40
2023-01-20T10:26:16.307Z,39.60
2023-01-20T10:28:56.036Z,43.50
2023-01-20T10:31:28.566Z,42.67
2023-01-20T10:34:03.895Z,48.07
2023-01-20T10:36:32.079Z,47.40
2023-01-20T10:39:21.956Z,67.10
2023-01-20T10:42:03.564Z,67.40
2023-01-20T10:44:35.624Z,63.00
2023-01-20T10:47:29.998Z,41.97
2023-01-20T10:50:10.944Z,38.70
2023-01-20T10:52:46.700Z,47.80
2023-01-20T10:55:46.006Z,46.57
2023-01-20T10:58:28.335Z,44.87
2023-01-20T11:00:56.039Z,40.43
2023-01-20T11:03:24.333Z,52.80
2023-01-20T11:05:52.708Z,41.40
2023-01-20T11:08:29.365Z,40.50
2023-01-20T11:11:21.984Z,45.13
2023-01-20T11:13:51.860Z,43.80
2023-01-20T11:16:31.503Z,48.13
2023-01-20T11:19:04.849Z,44.93
2023-01-20T11:21:37.137Z,47.57
2023-01-20T11:24:36.505Z,42.30
2023-01-20T11:27:12.995Z,45.73
2023-01-20T11:29:46.651Z,39.80
2023-01-20T11:32:35.953Z,41.67
2023-01-20T11:35:25.586Z,41.83
2023-01-20T11:37:52.820Z,47.40
2023-01-20T11:40:26.525Z,76.07
2023-01-20T11:42:54.887Z,69.20
2023-01-20T11:45:32.448Z,51.73
2023-01-20T11:48:25.851Z,46.13
2023-01-20T11:51:01.562Z,51.17
2023-01-20T11:53:31.892Z,48.50
2023-01-20T11:56:03.740Z,40.23
2023-01-20T11:58:50.645Z,57.53
2023-01-20T12:01:27.929Z,41.80
2023-01-20T12:04:10.396Z,54.30
2023-01-20T12:06:51.942Z,42.90
2023-01-20T12:09:25.469Z,48.73
2023-01-20T12:12:05.823Z,46.73
2023-01-20T12:15:02.352Z,47.00
2023-01-20T12:17:41.234Z,38.80
2023-01-20T12:20:35.429Z,46.07
2023-01-20T12:23:58.099Z,47.20
2023-01-20T12:26:28.309Z,43.13
2023-01-20T12:29:18.180Z,54.13
2023-01-20T12:31:49.104Z,34.93
2023-01-20T12:34:27.270Z,39.70
2023-01-20T12:37:00.527Z,42.30
2023-01-20T12:40:05.060Z,40.33
2023-01-20T12:42:56.043Z,49.23
2023-01-20T12:45:41.567Z,43.50
2023-01-20T12:48:50.975Z,34.37
2023-01-20T12:51:50.723Z,42.67
2023-01-20T12:54:49.238Z,30.03
2023-01-20T12:57:31.113Z,41.90
2023-01-20T13:00:26.411Z,38.27
2023-01-20T13:03:00.701Z,47.63
2023-01-20T13:06:07.399Z,37.90
2023-01-20T13:08:45.544Z,40.10
2023-01-20T13:11:55.214Z,44.77
2023-01-20T13:14:46.924Z,39.93
2023-01-20T13:17:29.581Z,43.33
2023-01-20T13:20:05.179Z,45.70
2023-01-20T13:22:32.294Z,47.03
2023-01-20T13:25:05.023Z,37.40
2023-01-20T13:27:37.677Z,50.47
2023-01-20T13:30:07.925Z,45.63
2023-01-20T13:32:37.442Z,48.77
2023-01-20T13:35:23.878Z,51.67
2023-01-20T13:37:56.698Z,52.07
2023-01-20T13:40:38.941Z,41.97
2023-01-20T13:43:25.290Z,44.80
2023-01-20T13:46:07.338Z,49.87
2023-01-20T13:48:36.820Z,77.50
2023-01-20T13:51:15.765Z,47.87
2023-01-20T13:53:46.123Z,48.83
2023-01-20T13:56:38.056Z,34.30
2023-01-20T13:59:08.575Z,38.70
2023-01-20T14:01:37.299Z,36.37
2023-01-20T14:04:21.961Z,41.73
2023-01-20T14:06:52.012Z,48.13
2023-01-20T14:09:26.298Z,35.83
2023-01-20T14:11:56.219Z,37.17
2023-01-20T14:14:26.242Z,42.30
2023-01-20T14:16:53.759Z,38.33
2023-01-20T14:19:35.300Z,48.47
2023-01-20T14:22:24.090Z,38.87
2023-01-20T14:24:54.028Z,49.47
2023-01-20T14:27:29.666Z,40.40
2023-01-20T14:30:19.280Z,42.53
2023-01-20T14:32:46.630Z,40.70
2023-01-20T14:35:31.980Z,40.20
2023-01-20T14:37:59.807Z,41.77
2023-01-20T14:40:33.089Z,33.40
2023-01-20T14:43:22.701Z,32.13
2023-01-20T14:45:51.867Z,38.27
2023-01-20T14:48:33.492Z,47.53
2023-01-20T14:51:04.223Z,31.73
2023-01-20T14:53:31.324Z,36.17
2023-01-20T14:56:04.711Z,34.67
2023-01-20T14:58:31.801Z,35.47
2023-01-20T15:01:03.955Z,42.43
2023-01-20T15:03:31.804Z,38.07
2023-01-20T15:06:05.792Z,42.40
2023-01-20T15:08:32.648Z,30.97
2023-01-20T15:11:18.374Z,34.03
2023-01-20T15:14:08.323Z,36.50
2023-01-20T15:16:44.198Z,39.97
2023-01-20T15:19:16.839Z,35.47
2023-01-20T15:21:53.014Z,44.57
2023-01-20T15:24:23.643Z,44.30
2023-01-20T15:26:53.504Z,40.70
2023-01-20T15:29:32.410Z,49.87
2023-01-20T15:32:03.132Z,33.57
2023-01-20T15:34:30.129Z,41.93
2023-01-20T15:36:57.356Z,32.67
2023-01-20T15:39:30.295Z,41.97
2023-01-20T15:41:58.434Z,37.87
2023-01-20T15:44:26.693Z,46.10
2023-01-20T15:46:57.244Z,36.67
2023-01-20T15:49:25.408Z,39.47
2023-01-20T15:51:52.856Z,41.70
2023-01-20T15:54:19.801Z,38.17
2023-01-20T15:56:46.873Z,39.70
2023-01-20T15:59:16.950Z,33.90
2023-01-20T16:01:49.894Z,37.53
2023-01-20T16:04:18.287Z,31.83
2023-01-20T16:06:45.474Z,40.37
2023-01-20T16:09:37.211Z,32.17
2023-01-20T16:12:04.381Z,49.00
2023-01-20T16:14:31.320Z,32.67
2023-01-20T16:16:58.242Z,36.70
2023-01-20T16:19:25.279Z,45.53
2023-01-20T16:21:52.181Z,42.50
2023-01-20T16:24:19.134Z,52.07
2023-01-20T16:26:47.169Z,55.63
2023-01-20T16:29:14.116Z,46.83
2023-01-20T16:31:41.161Z,52.40
2023-01-20T16:34:08.367Z,44.03
2023-01-20T16:36:35.335Z,50.90
2023-01-20T16:39:02.382Z,50.73
2023-01-20T16:41:30.902Z,44.00
2023-01-20T16:43:58.562Z,52.60
2023-01-20T16:46:29.482Z,54.43
2023-01-20T16:49:01.740Z,50.30
2023-01-20T16:51:31.015Z,53.13
2023-01-20T16:53:59.265Z,47.80
2023-01-20T16:56:30.084Z,46.53
2023-01-20T16:59:02.210Z,50.23
2023-01-20T17:01:30.605Z,50.47
2023-01-20T17:04:02.222Z,57.53
2023-01-20T17:06:33.468Z,45.53
2023-01-20T17:09:04.037Z,60.90
2023-01-20T17:11:36.715Z,46.03
2023-01-20T17:14:07.570Z,53.90
2023-01-20T17:16:35.522Z,45.77
2023-01-20T17:19:03.058Z,47.03
2023-01-20T17:21:33.575Z,38.33
2023-01-20T17:24:03.934Z,43.63
2023-01-20T17:26:31.897Z,40.53
2023-01-20T17:29:02.874Z,51.03
2023-01-20T17:31:33.166Z,42.60
2023-01-20T17:34:00.215Z,44.87
2023-01-20T17:36:27.225Z,46.43
2023-01-20T17:38:54.156Z,41.77
2023-01-20T17:41:21.150Z,52.70
2023-01-20T17:43:48.088Z,41.87
2023-01-20T17:46:30.014Z,46.43
2023-01-20T17:48:58.847Z,39.50
2023-01-20T17:51:28.689Z,37.70
2023-01-20T17:53:58.310Z,39.40
2023-01-20T17:56:25.837Z,41.33
2023-01-20T17:58:53.988Z,42.47
2023-01-20T18:01:28.189Z,45.03
2023-01-20T18:03:58.754Z,41.73
2023-01-20T18:06:27.494Z,48.53
2023-01-20T18:09:01.277Z,52.23
2023-01-20T18:11:32.679Z,44.37
2023-01-20T18:14:00.642Z,54.43
2023-01-20T18:16:37.479Z,35.93
2023-01-20T18:19:04.898Z,45.63
2023-01-20T18:21:37.155Z,36.17
2023-01-20T18:24:07.484Z,54.57
2023-01-20T18:26:38.405Z,38.90
2023-01-20T18:29:10.270Z,44.87
2023-01-20T18:31:37.311Z,43.03
2023-01-20T18:34:07.799Z,44.37
2023-01-20T18:36:38.862Z,39.27
2023-01-20T18:39:21.966Z,33.17
2023-01-20T18:41:50.688Z,41.60
2023-01-20T18:44:19.054Z,33.53
2023-01-20T18:46:46.253Z,34.60
2023-01-20T18:49:15.868Z,39.43
2023-01-20T18:51:43.454Z,41.07
2023-01-20T18:54:20.976Z,38.93
2023-01-20T18:56:48.201Z,42.30
2023-01-20T18:59:15.326Z,39.33
2023-01-20T19:01:43.039Z,48.50
2023-01-20T19:04:12.446Z,40.00
2023-01-20T19:06:42.944Z,54.13
2023-01-20T19:09:11.522Z,34.90
2023-01-20T19:11:41.214Z,35.27
2023-01-20T19:14:12.600Z,33.77
2023-01-20T19:16:45.115Z,29.77
2023-01-20T19:19:13.268Z,33.37
2023-01-20T19:21:40.242Z,45.53
2023-01-20T19:24:08.094Z,42.17
2023-01-20T19:26:38.994Z,28.40
2023-01-20T19:29:08.908Z,33.83
2023-01-20T19:31:39.295Z,39.17
2023-01-20T19:34:08.192Z,37.70
2023-01-20T19:36:35.489Z,39.30
2023-01-20T19:39:03.161Z,42.63
2023-01-20T19:41:34.435Z,40.40
2023-01-20T19:44:04.449Z,36.93
2023-01-20T19:46:34.596Z,34.30
2023-01-20T19:49:02.659Z,39.00
2023-01-20T19:51:31.387Z,38.37
2023-01-20T19:54:01.058Z,37.97
2023-01-20T19:56:31.595Z,37.47
2023-01-20T19:59:00.803Z,35.33
2023-01-20T20:01:36.895Z,36.13
2023-01-20T20:04:09.936Z,25.37
2023-01-20T20:06:40.541Z,35.80
2023-01-20T20:09:14.470Z,35.47
2023-01-20T20:11:42.103Z,44.00
2023-01-20T20:14:13.343Z,35.90
2023-01-20T20:16:40.957Z,43.07
2023-01-20T20:19:11.338Z,46.73
2023-01-20T20:21:38.290Z,44.67
2023-01-20T20:24:05.681Z,36.10
2023-01-20T20:26:37.640Z,45.23
2023-01-20T20:29:07.333Z,36.40
2023-01-20T20:31:37.560Z,42.53
2023-01-20T20:34:12.119Z,38.97
2023-01-20T20:36:39.886Z,32.90
2023-01-20T20:39:07.882Z,34.17
2023-01-20T20:41:36.648Z,36.77
2023-01-20T20:44:04.600Z,32.97
2023-01-20T20:46:32.306Z,31.10
2023-01-20T20:49:01.213Z,31.63
2023-01-20T20:51:31.882Z,30.43
2023-01-20T20:54:02.215Z,21.00
2023-01-20T20:56:31.833Z,28.87
2023-01-20T20:59:03.732Z,26.13
2023-01-20T21:01:33.750Z,27.60
2023-01-20T21:04:03.106Z,29.80
2023-01-20T21:06:30.792Z,26.00
2023-01-20T21:08:58.821Z,26.37
2023-01-20T21:11:26.453Z,38.60
2023-01-20T21:13:53.608Z,27.30
2023-01-20T21:16:22.987Z,27.57
2023-01-20T21:18:52.557Z,36.53
2023-01-20T21:21:20.458Z,26.17
2023-01-20T21:23:53.247Z,34.23
2023-01-20T21:26:20.994Z,34.37
2023-01-20T21:28:49.356Z,38.77
2023-01-20T21:31:21.275Z,30.20
2023-01-20T21:33:54.486Z,27.60
2023-01-20T21:36:22.191Z,26.93
2023-01-20T21:38:49.786Z,27.37
2023-01-20T21:41:18.277Z,31.70
2023-01-20T21:44:05.760Z,23.93
2023-01-20T21:46:39.740Z,19.63
2023-01-20T21:49:29.095Z,22.97
2023-01-20T21:52:15.403Z,21.83
2023-01-20T21:54:44.844Z,18.63
2023-01-20T21:57:11.913Z,20.50
2023-01-20T21:59:39.307Z,17.77
2023-01-20T22:02:07.645Z,15.27
2023-01-20T22:04:34.667Z,26.07
2023-01-20T22:07:02.205Z,19.93
2023-01-20T22:09:29.188Z,25.63
2023-01-20T22:11:56.122Z,17.20
2023-01-20T22:14:23.221Z,18.70
2023-01-20T22:16:50.210Z,24.77
2023-01-20T22:19:17.499Z,12.77
2023-01-20T22:21:44.428Z,19.67
2023-01-20T22:24:11.559Z,14.20
2023-01-20T22:26:38.621Z,22.57
2023-01-20T22:29:05.621Z,15.30
2023-01-20T22:31:34.216Z,13.77
2023-01-20T22:34:04.485Z,12.33
2023-01-20T22:36:31.646Z,15.90
2023-01-20T22:38:58.942Z,14.20
2023-01-20T22:41:26.343Z,24.03
2023-01-20T22:43:53.681Z,19.40
2023-01-20T22:46:24.260Z,21.93
2023-01-20T22:48:51.331Z,12.50
2023-01-20T22:51:36.162Z,18.63
2023-01-20T22:54:03.332Z,13.27
2023-01-20T22:56:32.624Z,11.53
2023-01-20T22:59:00.506Z,13.40
2023-01-20T23:01:32.496Z,17.00
2023-01-20T23:04:03.052Z,16.20
2023-01-20T23:06:33.688Z,9.00
2023-01-20T23:09:03.442Z,20.83
2023-01-20T23:11:31.021Z,8.93
2023-01-20T23:13:58.359Z,18.23
2023-01-20T23:16:25.353Z,14.57
2023-01-20T23:18:52.626Z,10.40
2023-01-20T23:21:21.171Z,10.37
2023-01-20T23:23:54.563Z,16.20
2023-01-20T23:26:26.330Z,17.27
2023-01-20T23:28:55.170Z,11.77
2023-01-20T23:31:24.667Z,13.63
2023-01-20T23:33:53.720Z,12.90
2023-01-20T23:36:24.309Z,19.60
2023-01-20T23:38:54.603Z,25.37
2023-01-20T23:41:21.791Z,14.53
2023-01-20T23:43:48.856Z,13.33
2023-01-20T23:46:15.778Z,15.10
2023-01-20T23:48:45.040Z,14.90
2023-01-20T23:51:12.000Z,10.30
2023-01-20T23:53:40.470Z,13.77
2023-01-20T23:56:13.324Z,19.73
2023-01-20T23:58:40.591Z,11.80
